Time;durP1;ratioP1;P1;durP2;ratioP2;P2;SDS_P1;SDS_P2;PMS_P1;PMS_P2;Temp;Humidity;BMP_temperature;BMP_pressure;BME280_temperature;BME280_humidity;BME280_pressure;Samples;Min_cycle;Max_cycle;Signal;HPM_P1;HPM_P2
2022/06/26 00:01:09;;;;;;;13.57;8.88;;;18.10;99.90;;;;;;6220573;23;20030;-80
2022/06/26 00:03:37;;;;;;;13.85;8.23;;;18.10;99.90;;;;;;6220554;23;20024;-81
2022/06/26 00:06:03;;;;;;;11.48;8.57;;;18.10;99.90;;;;;;6220130;23;20027;-81
2022/06/26 00:08:29;;;;;;;11.68;8.18;;;18.10;99.90;;;;;;6220586;23;20340;-80
2022/06/26 00:10:54;;;;;;;13.07;9.02;;;18.10;99.90;;;;;;6247311;23;20020;-81
2022/06/26 00:13:20;;;;;;;10.65;8.88;;;18.00;99.90;;;;;;6247439;23;20478;-80
2022/06/26 00:15:46;;;;;;;9.63;8.10;;;17.90;99.90;;;;;;6220061;23;20090;-80
2022/06/26 00:18:12;;;;;;;11.15;8.80;;;18.00;99.90;;;;;;6247325;23;20016;-80
2022/06/26 00:20:38;;;;;;;9.75;7.65;;;17.90;99.90;;;;;;6220723;23;20012;-80
2022/06/26 00:23:03;;;;;;;12.80;9.32;;;18.00;99.90;;;;;;6247337;23;20027;-81
2022/06/26 00:25:29;;;;;;;14.45;8.23;;;17.90;99.90;;;;;;6220441;23;20023;-80
2022/06/26 00:27:55;;;;;;;10.57;9.40;;;17.90;99.90;;;;;;6247360;23;20016;-81
2022/06/26 00:30:21;;;;;;;12.88;9.38;;;17.90;99.90;;;;;;6247179;23;20099;-80
2022/06/26 00:32:46;;;;;;;11.80;8.82;;;17.80;99.90;;;;;;6219847;23;20074;-81
2022/06/26 00:35:12;;;;;;;11.77;9.35;;;17.80;99.90;;;;;;6247055;23;20093;-81
2022/06/26 00:37:38;;;;;;;10.10;9.05;;;17.90;99.90;;;;;;6247075;23;20015;-84
2022/06/26 00:40:04;;;;;;;13.73;9.35;;;17.80;99.90;;;;;;6220431;23;20165;-81
2022/06/26 00:42:30;;;;;;;8.85;7.88;;;17.90;99.90;;;;;;6246934;23;20065;-81
2022/06/26 00:44:56;;;;;;;8.73;7.85;;;17.90;99.90;;;;;;6220301;23;20016;-81
2022/06/26 00:47:23;;;;;;;14.38;10.93;;;18.00;99.90;;;;;;6195370;23;20016;-81
2022/06/26 00:49:49;;;;;;;10.55;9.45;;;18.10;99.90;;;;;;6247025;23;20019;-81
2022/06/26 00:52:16;;;;;;;11.63;8.85;;;18.20;99.90;;;;;;6247182;23;20340;-80
2022/06/26 00:54:41;;;;;;;13.75;10.00;;;18.30;99.90;;;;;;6220385;23;20024;-81
2022/06/26 00:57:07;;;;;;;12.00;10.40;;;18.40;99.90;;;;;;6219328;23;20020;-81
2022/06/26 00:59:33;;;;;;;15.15;11.18;;;18.50;99.90;;;;;;6246990;23;20020;-82
2022/06/26 01:01:59;;;;;;;15.38;12.00;;;18.50;99.90;;;;;;6246980;23;20467;-81
2022/06/26 01:04:24;;;;;;;16.90;12.75;;;18.60;99.90;;;;;;6247003;23;20023;-81
2022/06/26 01:06:50;;;;;;;19.27;11.73;;;18.50;99.90;;;;;;6220173;23;20402;-81
2022/06/26 01:09:17;;;;;;;15.82;12.43;;;18.60;99.90;;;;;;6246724;23;20038;-81
2022/06/26 01:11:44;;;;;;;16.17;13.25;;;18.60;99.90;;;;;;6246662;23;20017;-82
2022/06/26 01:14:10;;;;;;;18.30;13.90;;;18.50;99.90;;;;;;6247255;23;20066;-81
2022/06/26 01:16:40;;;;;;;18.83;14.23;;;18.50;99.90;;;;;;6246574;23;20016;-81
2022/06/26 01:19:07;;;;;;;19.77;13.53;;;18.50;99.90;;;;;;6219972;23;20024;-81
2022/06/26 01:21:34;;;;;;;21.88;14.20;;;18.50;99.90;;;;;;6246808;23;20402;-80
2022/06/26 01:24:00;;;;;;;17.45;13.75;;;18.40;99.90;;;;;;6220133;23;20095;-81
2022/06/26 01:26:27;;;;;;;20.23;14.10;;;18.40;99.90;;;;;;6246496;23;20020;-84
2022/06/26 01:28:53;;;;;;;16.75;14.90;;;18.40;99.90;;;;;;6246948;23;20328;-82
2022/06/26 01:31:19;;;;;;;21.27;15.25;;;18.40;99.90;;;;;;6246556;23;20034;-81
2022/06/26 01:33:49;;;;;;;21.80;15.25;;;18.30;99.90;;;;;;6246618;23;20059;-81
2022/06/26 01:36:16;;;;;;;23.47;15.43;;;18.30;99.90;;;;;;6246408;23;20058;-81
2022/06/26 01:38:42;;;;;;;21.60;14.70;;;18.30;99.90;;;;;;6219817;23;20059;-81
2022/06/26 01:41:08;;;;;;;22.55;14.27;;;18.20;99.90;;;;;;6246427;23;20090;-81
2022/06/26 01:43:37;;;;;;;48.45;17.20;;;18.20;99.90;;;;;;6246503;23;20023;-81
2022/06/26 01:46:04;;;;;;;56.72;20.50;;;18.20;99.90;;;;;;6246421;23;20012;-81
2022/06/26 01:48:31;;;;;;;48.95;24.20;;;18.10;99.90;;;;;;6246325;23;20026;-81
2022/06/26 01:50:59;;;;;;;49.97;23.15;;;18.00;99.90;;;;;;6219807;23;20016;-83
2022/06/26 01:53:25;;;;;;;53.03;25.02;;;17.90;99.90;;;;;;6246453;23;20016;-83
2022/06/26 01:55:51;;;;;;;50.33;25.52;;;17.80;99.90;;;;;;6246333;23;20332;-83
2022/06/26 01:58:17;;;;;;;53.70;27.08;;;17.70;99.90;;;;;;6246423;23;20104;-82
2022/06/26 02:00:44;;;;;;;39.38;22.92;;;17.70;99.90;;;;;;6219593;23;20016;-82
2022/06/26 02:03:11;;;;;;;30.02;18.75;;;17.60;99.90;;;;;;6219546;23;20016;-81
2022/06/26 02:05:37;;;;;;;36.05;22.02;;;17.60;99.90;;;;;;6246371;23;20424;-82
2022/06/26 02:08:03;;;;;;;35.63;21.02;;;17.60;99.90;;;;;;6219441;23;20103;-82
2022/06/26 02:16:01;;;;;;;46.10;25.13;;;17.50;99.90;;;;;;6219339;23;20340;-82
2022/06/26 02:18:27;;;;;;;73.20;30.50;;;17.40;99.90;;;;;;6219495;23;20105;-81
2022/06/26 02:20:54;;;;;;;55.28;27.90;;;17.40;99.90;;;;;;6246143;23;20016;-82
2022/06/26 02:23:19;;;;;;;31.67;19.60;;;17.40;99.90;;;;;;6245902;23;20082;-81
2022/06/26 02:25:46;;;;;;;36.65;23.05;;;17.40;99.90;;;;;;6246216;23;20016;-81
2022/06/26 02:28:12;;;;;;;29.73;20.08;;;17.30;99.90;;;;;;6246220;23;20027;-81
2022/06/26 02:30:38;;;;;;;74.97;31.13;;;17.20;99.90;;;;;;6245780;23;20531;-81
2022/06/26 02:33:04;;;;;;;40.58;22.60;;;17.20;99.90;;;;;;6246386;23;20073;-81
2022/06/26 02:35:30;;;;;;;28.50;18.13;;;17.10;99.90;;;;;;6219267;23;20016;-81
2022/06/26 02:37:57;;;;;;;36.58;21.23;;;17.00;99.90;;;;;;6245967;23;20091;-81
2022/06/26 02:40:27;;;;;;;43.70;22.77;;;17.10;99.90;;;;;;6219317;23;20020;-81
2022/06/26 02:42:53;;;;;;;27.67;17.60;;;17.10;99.90;;;;;;6219449;23;20102;-82
2022/06/26 02:45:19;;;;;;;29.05;17.83;;;17.00;99.90;;;;;;6218877;23;20020;-81
2022/06/26 02:47:46;;;;;;;32.10;18.30;;;17.00;99.90;;;;;;6245969;23;20028;-81
2022/06/26 02:50:12;;;;;;;23.30;15.20;;;16.90;99.90;;;;;;6246107;23;20087;-81
2022/06/26 02:52:38;;;;;;;55.95;23.08;;;16.80;99.90;;;;;;6219154;23;20016;-81
2022/06/26 02:55:05;;;;;;;58.42;24.92;;;16.70;99.90;;;;;;6219377;23;20107;-81
2022/06/26 02:57:30;;;;;;;54.25;23.73;;;16.70;99.90;;;;;;6245896;23;20012;-82
2022/06/26 02:59:56;;;;;;;28.80;16.75;;;16.70;99.90;;;;;;6246030;23;20409;-81
2022/06/26 03:02:24;;;;;;;26.42;16.15;;;16.60;99.90;;;;;;6245925;23;20047;-82
2022/06/26 03:04:51;;;;;;;25.55;16.42;;;16.60;99.90;;;;;;6218975;23;20051;-81
2022/06/26 03:07:17;;;;;;;19.40;12.93;;;16.50;99.90;;;;;;6218520;23;20016;-81
2022/06/26 03:09:42;;;;;;;21.65;13.40;;;16.50;99.90;;;;;;6193728;23;20148;-81
2022/06/26 03:12:08;;;;;;;27.95;15.25;;;16.50;99.90;;;;;;6245825;23;20065;-81
2022/06/26 03:14:34;;;;;;;29.80;14.70;;;16.40;99.90;;;;;;6246197;23;20328;-81
2022/06/26 03:17:00;;;;;;;17.65;11.15;;;16.40;99.90;;;;;;6219113;23;20020;-81
2022/06/26 03:19:25;;;;;;;15.95;10.40;;;16.30;99.90;;;;;;6245958;23;20012;-81
2022/06/26 03:21:51;;;;;;;16.02;9.85;;;16.30;99.90;;;;;;6221017;23;20024;-81
2022/06/26 03:24:17;;;;;;;15.80;9.60;;;16.20;99.90;;;;;;6220515;23;20020;-81
2022/06/26 03:26:43;;;;;;;19.33;10.15;;;16.20;99.90;;;;;;6247331;23;20047;-81
2022/06/26 03:29:10;;;;;;;28.23;12.45;;;16.20;99.90;;;;;;6247945;23;20012;-81
2022/06/26 03:31:36;;;;;;;19.60;11.00;;;16.10;99.90;;;;;;6247746;23;20020;-81
2022/06/26 03:34:02;;;;;;;16.00;9.80;;;16.10;99.90;;;;;;6247458;23;20490;-81
2022/06/26 03:36:28;;;;;;;26.95;11.45;;;16.10;99.90;;;;;;6220748;23;20019;-81
2022/06/26 03:38:55;;;;;;;12.25;8.10;;;16.10;99.90;;;;;;6220828;23;20008;-81
2022/06/26 03:41:21;;;;;;;20.38;11.23;;;16.00;99.90;;;;;;6221321;23;20048;-81
2022/06/26 03:43:47;;;;;;;20.02;11.10;;;16.00;99.90;;;;;;6247706;23;20016;-81
2022/06/26 03:46:13;;;;;;;18.30;9.13;;;16.00;99.90;;;;;;6220433;23;20454;-81
2022/06/26 03:48:39;;;;;;;12.90;8.30;;;16.00;99.90;;;;;;6247585;23;20065;-81
2022/06/26 03:51:05;;;;;;;13.57;7.30;;;15.80;99.90;;;;;;6220866;23;20074;-81
2022/06/26 03:53:31;;;;;;;17.48;8.52;;;15.90;99.90;;;;;;6247439;23;20051;-81
2022/06/26 03:55:57;;;;;;;16.33;8.55;;;15.90;99.90;;;;;;6247617;23;20378;-81
2022/06/26 03:58:24;;;;;;;22.23;10.77;;;15.90;99.90;;;;;;6247691;23;20020;-81
2022/06/26 04:00:49;;;;;;;13.10;7.60;;;15.90;99.90;;;;;;6220616;23;20020;-81
2022/06/26 04:03:15;;;;;;;17.88;9.98;;;15.90;99.90;;;;;;6247437;23;20013;-81
2022/06/26 04:05:41;;;;;;;20.73;10.50;;;15.90;99.90;;;;;;6220164;23;20456;-81
2022/06/26 04:08:07;;;;;;;16.38;9.00;;;15.80;99.90;;;;;;6247434;23;20101;-81
2022/06/26 04:10:34;;;;;;;11.52;8.80;;;15.80;99.90;;;;;;6195609;23;20451;-81
2022/06/26 04:13:05;;;;;;;12.10;7.13;;;15.90;99.90;;;;;;6220076;23;20043;-81
2022/06/26 04:15:31;;;;;;;;;;;15.80;99.90;;;;;;6220736;23;20444;-81
2022/06/26 04:17:57;;;;;;;15.65;7.72;;;15.90;99.90;;;;;;6220468;23;19916;-81
2022/06/26 04:20:24;;;;;;;11.73;8.18;;;15.90;99.90;;;;;;6247326;23;20023;-81
2022/06/26 04:23:01;;;;;;;9.18;6.47;;;15.90;99.90;;;;;;6219784;23;20507;-81
2022/06/26 04:25:29;;;;;;;15.20;8.32;;;15.90;99.90;;;;;;6195416;23;20016;-81
2022/06/26 04:27:56;;;;;;;10.93;8.18;;;15.90;99.90;;;;;;6247400;23;20024;-81
2022/06/26 04:30:22;;;;;;;11.73;7.82;;;16.00;99.90;;;;;;6220508;23;20465;-81
2022/06/26 04:32:48;;;;;;;11.80;7.85;;;16.10;99.90;;;;;;6220456;23;20087;-81
2022/06/26 04:35:14;;;;;;;24.40;11.35;;;16.00;99.90;;;;;;6220401;23;20054;-81
2022/06/26 04:37:40;;;;;;;12.55;9.25;;;16.10;99.90;;;;;;6246952;23;20095;-82
2022/06/26 04:40:09;;;;;;;15.95;9.85;;;16.10;99.90;;;;;;6220404;23;20087;-81
2022/06/26 04:42:35;;;;;;;11.90;8.95;;;16.20;99.90;;;;;;6219626;23;20143;-80
2022/06/26 04:45:00;;;;;;;13.85;10.50;;;16.20;99.90;;;;;;6247135;23;20016;-80
2022/06/26 04:47:26;;;;;;;11.07;8.75;;;16.30;99.90;;;;;;6246945;23;20067;-81
2022/06/26 04:49:52;;;;;;;12.93;8.93;;;16.40;99.90;;;;;;6247107;23;20020;-81
2022/06/26 04:52:18;;;;;;;13.77;10.43;;;16.50;99.90;;;;;;6246904;23;20023;-81
2022/06/26 04:54:43;;;;;;;14.50;8.68;;;16.60;99.90;;;;;;6247051;23;20024;-81
2022/06/26 04:57:10;;;;;;;15.25;10.30;;;16.60;99.90;;;;;;6219946;23;20020;-81
2022/06/26 04:59:36;;;;;;;13.07;9.35;;;16.60;99.90;;;;;;6220206;23;20091;-81
2022/06/26 05:02:03;;;;;;;11.25;9.00;;;16.70;99.90;;;;;;6246835;23;20016;-82
2022/06/26 05:04:28;;;;;;;10.77;8.85;;;16.80;99.90;;;;;;6219904;23;20482;-82
2022/06/26 05:06:54;;;;;;;15.65;10.05;;;16.80;99.90;;;;;;6219394;23;20020;-81
2022/06/26 05:09:22;;;;;;;13.20;9.40;;;16.90;99.90;;;;;;6194432;23;20016;-81
2022/06/26 05:11:47;;;;;;;15.07;10.35;;;17.00;99.90;;;;;;6246740;23;20020;-82
2022/06/26 05:14:13;;;;;;;10.98;8.43;;;17.10;99.90;;;;;;6220211;23;20028;-82
2022/06/26 05:16:39;;;;;;;16.20;10.43;;;17.10;99.90;;;;;;6246664;23;20463;-82
2022/06/26 05:19:04;;;;;;;13.40;9.45;;;17.10;99.90;;;;;;6246726;23;20462;-82
2022/06/26 05:21:30;;;;;;;16.50;8.95;;;17.00;99.90;;;;;;6220039;23;20020;-83
2022/06/26 05:23:56;;;;;;;16.58;10.18;;;16.90;99.90;;;;;;6246656;23;20023;-82
2022/06/26 05:26:23;;;;;;;11.85;9.13;;;16.90;99.90;;;;;;6219816;23;20436;-82
2022/06/26 05:28:50;;;;;;;14.60;9.88;;;16.90;99.90;;;;;;6219783;23;20035;-82
2022/06/26 05:31:16;;;;;;;11.93;10.45;;;16.80;99.90;;;;;;6246673;23;20016;-82
2022/06/26 05:33:42;;;;;;;13.07;10.27;;;16.70;99.90;;;;;;6246569;23;20443;-82
2022/06/26 05:36:08;;;;;;;18.90;11.85;;;16.80;99.90;;;;;;6219712;23;20499;-82
2022/06/26 05:38:35;;;;;;;14.40;10.77;;;16.70;99.90;;;;;;6246448;23;20035;-82
2022/06/26 05:41:01;;;;;;;13.30;10.95;;;16.70;99.90;;;;;;6246460;23;20016;-82
2022/06/26 05:43:27;;;;;;;14.55;11.25;;;16.90;99.90;;;;;;6219574;23;20070;-82
2022/06/26 05:45:53;;;;;;;13.95;10.73;;;16.90;99.90;;;;;;6246761;23;20367;-82
2022/06/26 05:48:18;;;;;;;17.00;12.43;;;16.90;99.90;;;;;;6219618;23;20095;-83
2022/06/26 05:50:44;;;;;;;13.73;11.68;;;17.00;99.90;;;;;;6219623;23;20070;-82
2022/06/26 05:53:10;;;;;;;11.52;9.80;;;17.00;99.90;;;;;;6193839;23;20436;-82
2022/06/26 05:55:38;;;;;;;16.25;13.38;;;17.00;99.90;;;;;;6246239;23;20018;-82
2022/06/26 05:58:05;;;;;;;16.85;13.43;;;17.00;99.90;;;;;;6219683;23;20020;-83
2022/06/26 06:00:31;;;;;;;15.63;11.90;;;17.00;99.90;;;;;;6194198;23;20062;-83
2022/06/26 06:02:56;;;;;;;19.83;15.25;;;16.90;99.90;;;;;;6246242;23;20328;-83
2022/06/26 06:05:22;;;;;;;16.67;13.93;;;16.90;99.90;;;;;;6219392;23;20328;-82
2022/06/26 06:07:48;;;;;;;27.23;17.67;;;16.80;99.90;;;;;;6219411;23;20079;-83
2022/06/26 06:10:14;;;;;;;19.90;15.88;;;16.90;99.90;;;;;;6219811;23;20020;-83
2022/06/26 06:12:40;;;;;;;21.63;16.48;;;17.00;99.90;;;;;;6219576;23;20091;-83
2022/06/26 06:15:06;;;;;;;20.83;16.42;;;17.20;99.90;;;;;;6219519;23;20440;-83
2022/06/26 06:17:40;;;;;;;21.55;17.25;;;17.30;99.90;;;;;;6219583;23;20020;-83
2022/06/26 06:20:20;;;;;;;22.80;17.00;;;17.30;99.90;;;;;;6219606;23;20051;-83
2022/06/26 06:22:48;;;;;;;22.77;16.20;;;17.40;99.90;;;;;;6245951;23;20012;-82
2022/06/26 06:25:14;;;;;;;19.27;17.13;;;17.40;99.90;;;;;;6219435;23;20012;-82
2022/06/26 06:27:41;;;;;;;18.85;16.30;;;17.30;99.90;;;;;;6219710;23;20138;-83
2022/06/26 06:30:09;;;;;;;21.38;18.08;;;17.40;99.90;;;;;;6246405;23;20012;-83
2022/06/26 06:32:35;;;;;;;19.25;17.15;;;17.30;99.90;;;;;;6194309;23;20020;-82
2022/06/26 06:35:01;;;;;;;21.30;18.02;;;17.30;99.90;;;;;;6218969;23;20122;-83
2022/06/26 06:37:27;;;;;;;21.05;17.92;;;17.40;99.90;;;;;;6193667;23;20055;-82
2022/06/26 06:39:53;;;;;;;24.35;19.70;;;17.30;99.90;;;;;;6219469;23;20048;-82
2022/06/26 06:42:19;;;;;;;26.30;21.10;;;17.30;99.90;;;;;;6194167;23;20023;-83
2022/06/26 06:44:45;;;;;;;23.88;19.02;;;17.40;99.90;;;;;;6219499;23;20024;-82
2022/06/26 06:47:12;;;;;;;23.33;19.25;;;17.40;99.90;;;;;;6246080;23;20022;-83
2022/06/26 06:49:38;;;;;;;23.85;17.92;;;17.50;99.90;;;;;;6219358;23;20027;-83
2022/06/26 06:52:05;;;;;;;20.48;18.20;;;17.40;99.90;;;;;;6219411;23;20038;-83
2022/06/26 06:54:31;;;;;;;21.80;17.70;;;17.50;99.90;;;;;;6219477;23;20332;-83
2022/06/26 06:56:57;;;;;;;22.67;20.17;;;17.70;99.90;;;;;;6221034;23;20023;-83
2022/06/26 06:59:23;;;;;;;21.85;19.60;;;17.80;99.90;;;;;;6221377;23;20028;-83
2022/06/26 07:01:49;;;;;;;22.75;20.35;;;17.60;99.90;;;;;;6221281;23;20451;-85
2022/06/26 07:04:15;;;;;;;21.95;19.58;;;17.40;99.90;;;;;;6191369;23;20052;-83
2022/06/26 07:06:44;;;;;;;22.15;19.73;;;17.20;99.90;;;;;;6190454;23;20451;-84
2022/06/26 07:09:10;;;;;;;22.17;19.83;;;17.20;99.90;;;;;;6191438;23;20094;-85
2022/06/26 07:11:36;;;;;;;25.08;20.92;;;17.50;99.90;;;;;;6216228;23;20016;-84
2022/06/26 07:14:02;;;;;;;24.33;21.40;;;18.00;99.90;;;;;;6217709;23;20332;-85
2022/06/26 07:16:28;;;;;;;22.33;19.77;;;18.10;99.90;;;;;;6217696;23;20070;-84
2022/06/26 07:18:54;;;;;;;20.40;17.90;;;18.70;99.90;;;;;;6191184;23;20400;-84
2022/06/26 07:21:20;;;;;;;22.73;18.75;;;19.00;99.90;;;;;;6216024;23;20032;-85
2022/06/26 07:23:45;;;;;;;22.05;15.68;;;19.20;99.90;;;;;;6216471;23;20020;-84
2022/06/26 07:26:11;;;;;;;19.92;15.30;;;19.60;99.90;;;;;;6215642;23;20091;-85
2022/06/26 07:28:37;;;;;;;17.27;13.95;;;20.30;99.90;;;;;;6217754;23;20016;-82
2022/06/26 07:31:03;;;;;;;17.17;14.57;;;21.10;99.90;;;;;;6215932;23;20114;-86
2022/06/26 07:36:13;;;;;;;16.42;13.43;;;21.20;99.90;;;;;;6216130;23;20027;-83
2022/06/26 07:38:39;;;;;;;17.15;14.00;;;21.60;99.90;;;;;;6217943;23;20016;-82
2022/06/26 07:41:05;;;;;;;15.18;11.77;;;21.60;99.90;;;;;;6217725;23;20091;-84
2022/06/26 07:43:31;;;;;;;14.35;12.40;;;21.90;99.90;;;;;;6191353;23;20381;-84
2022/06/26 07:45:57;;;;;;;12.93;11.40;;;22.50;99.90;;;;;;6217842;23;20071;-83
2022/06/26 07:48:23;;;;;;;16.02;11.02;;;22.90;99.90;;;;;;6216563;23;20059;-83
2022/06/26 07:50:48;;;;;;;17.40;11.77;;;23.10;99.90;;;;;;6190530;23;20016;-82
2022/06/26 07:53:14;;;;;;;11.68;10.23;;;23.10;99.90;;;;;;6190322;23;20047;-84
2022/06/26 07:55:40;;;;;;;13.20;10.38;;;22.70;99.90;;;;;;6215594;23;20343;-82
2022/06/26 07:58:06;;;;;;;11.52;9.00;;;23.10;99.90;;;;;;6216498;23;20027;-82
2022/06/26 08:00:31;;;;;;;11.95;9.25;;;23.70;99.90;;;;;;6215876;23;20015;-83
2022/06/26 08:03:09;;;;;;;9.43;8.45;;;23.40;99.90;;;;;;6216033;23;20020;-84
2022/06/26 08:05:36;;;;;;;10.50;7.90;;;22.90;99.90;;;;;;6213459;23;20016;-81
2022/06/26 08:08:03;;;;;;;9.57;7.35;;;22.40;99.90;;;;;;6213694;23;20358;-83
2022/06/26 08:10:28;;;;;;;7.50;6.15;;;22.40;99.90;;;;;;6214106;23;20012;-83
2022/06/26 08:12:55;;;;;;;8.20;6.65;;;23.10;99.90;;;;;;6215436;23;20139;-84
2022/06/26 08:15:21;;;;;;;8.35;6.43;;;24.20;99.90;;;;;;6214035;23;20076;-83
2022/06/26 08:17:47;;;;;;;8.38;6.30;;;25.10;99.90;;;;;;6214052;23;20017;-83
2022/06/26 08:20:13;;;;;;;9.63;6.20;;;25.90;99.90;;;;;;6215773;23;20322;-84
2022/06/26 08:22:38;;;;;;;6.72;5.68;;;26.70;99.90;;;;;;6188929;23;20029;-83
2022/06/26 08:25:05;;;;;;;6.82;6.13;;;27.00;99.10;;;;;;6213878;23;20013;-82
2022/06/26 08:27:30;;;;;;;8.60;4.70;;;27.30;95.80;;;;;;6214047;23;20024;-83
2022/06/26 08:29:56;;;;;;;7.25;4.45;;;27.80;92.40;;;;;;6189287;23;20020;-83
2022/06/26 08:32:21;;;;;;;5.03;4.10;;;27.40;89.70;;;;;;6215395;23;20017;-81
2022/06/26 08:34:47;;;;;;;8.77;4.47;;;26.00;98.10;;;;;;6215160;23;20381;-85
2022/06/26 08:37:13;;;;;;;5.50;3.92;;;25.40;99.90;;;;;;6213823;23;20052;-84
2022/06/26 08:39:38;;;;;;;5.28;4.53;;;25.00;99.90;;;;;;6215245;23;20021;-83
2022/06/26 08:42:05;;;;;;;7.10;5.47;;;25.70;99.30;;;;;;6188708;23;20016;-83
2022/06/26 08:44:32;;;;;;;7.57;5.00;;;25.70;97.50;;;;;;6215339;23;20441;-82
2022/06/26 08:46:59;;;;;;;6.95;4.90;;;24.80;99.80;;;;;;6213794;23;20021;-82
2022/06/26 08:49:25;;;;;;;6.80;5.13;;;24.10;99.90;;;;;;6213724;23;20110;-83
2022/06/26 08:51:52;;;;;;;7.10;5.55;;;23.90;99.90;;;;;;6215220;23;20024;-82
2022/06/26 08:54:19;;;;;;;7.63;5.50;;;24.60;99.90;;;;;;6213861;23;20017;-84
2022/06/26 08:56:48;;;;;;;6.95;4.40;;;25.60;99.90;;;;;;6213480;23;20013;-83
2022/06/26 08:59:16;;;;;;;4.10;2.80;;;25.50;98.40;;;;;;6213753;23;20017;-83
2022/06/26 09:01:44;;;;;;;4.13;2.90;;;25.40;97.30;;;;;;6213659;23;20021;-82
2022/06/26 09:04:10;;;;;;;4.78;3.15;;;25.50;99.30;;;;;;6166832;23;1100069;-83
2022/06/26 09:06:37;;;;;;;5.78;4.30;;;26.20;92.60;;;;;;6216448;23;20444;-83
2022/06/26 09:09:27;;;;;;;6.75;4.20;;;25.90;95.30;;;;;;6215302;23;20016;-83
2022/06/26 09:11:58;;;;;;;6.20;4.55;;;25.60;99.90;;;;;;6216838;23;20017;-82
2022/06/26 09:14:25;;;;;;;4.30;3.47;;;26.30;93.20;;;;;;6215266;23;20326;-82
2022/06/26 09:16:52;;;;;;;5.30;3.80;;;26.70;88.60;;;;;;6214970;23;20019;-83
2022/06/26 09:19:24;;;;;;;5.78;3.67;;;26.90;85.10;;;;;;6189798;23;20071;-82
2022/06/26 09:21:52;;;;;;;5.53;2.90;;;27.10;84.30;;;;;;6216686;23;20059;-82
2022/06/26 09:24:20;;;;;;;6.38;3.55;;;27.10;86.50;;;;;;6214966;23;20016;-83
2022/06/26 09:26:59;;;;;;;6.15;3.38;;;27.10;83.30;;;;;;6214887;23;20456;-81
2022/06/26 09:29:25;;;;;;;6.20;3.20;;;27.30;73.70;;;;;;6216492;23;20020;-81
2022/06/26 09:31:51;;;;;;;3.85;2.85;;;27.60;73.40;;;;;;6214937;23;20027;-82
2022/06/26 09:34:25;;;;;;;4.18;2.90;;;27.60;68.80;;;;;;6216561;23;20012;-83
2022/06/26 09:37:05;;;;;;;6.97;3.33;;;27.80;70.80;;;;;;6216414;23;20059;-83
2022/06/26 09:39:32;;;;;;;4.03;3.35;;;27.70;66.40;;;;;;6215053;23;20100;-82
2022/06/26 09:42:19;;;;;;;6.40;3.47;;;27.10;73.00;;;;;;6216307;23;20016;-83
2022/06/26 09:44:50;;;;;;;6.95;3.97;;;26.60;70.60;;;;;;6216448;23;20095;-84
2022/06/26 09:47:27;;;;;;;6.80;3.28;;;25.90;84.80;;;;;;6189669;23;20025;-87
2022/06/26 09:49:55;;;;;;;4.03;2.70;;;25.50;90.70;;;;;;6189723;23;20056;-85
2022/06/26 09:52:23;;;;;;;4.60;2.67;;;25.50;91.80;;;;;;6189730;23;20079;-82
2022/06/26 09:54:49;;;;;;;6.15;2.50;;;25.50;89.20;;;;;;6216110;23;20024;-83
2022/06/26 09:57:15;;;;;;;5.75;2.67;;;25.50;90.40;;;;;;6216038;23;20052;-83
2022/06/26 09:59:41;;;;;;;6.95;2.60;;;25.30;91.40;;;;;;6216359;23;20017;-82
2022/06/26 10:07:49;;;;;;;4.80;2.58;;;25.80;82.30;;;;;;6214694;23;20031;-82
2022/06/26 10:10:17;;;;;;;5.38;2.90;;;27.00;73.20;;;;;;6214640;23;20078;-81
2022/06/26 10:12:46;;;;;;;4.88;2.80;;;27.30;68.40;;;;;;6214701;23;20090;-82
2022/06/26 10:15:12;;;;;;;4.15;3.25;;;27.00;70.40;;;;;;6189956;23;20020;-83
2022/06/26 10:18:15;;;;;;;5.90;3.08;;;26.40;71.70;;;;;;6215859;23;20067;-83
2022/06/26 10:20:42;;;;;;;4.53;2.45;;;25.80;74.70;;;;;;6189536;23;20067;-82
2022/06/26 10:23:08;;;;;;;5.10;3.25;;;25.30;86.10;;;;;;6216008;23;20392;-82
2022/06/26 10:25:34;;;;;;;5.03;3.00;;;24.90;86.70;;;;;;6214460;23;20016;-82
2022/06/26 10:28:00;;;;;;;5.70;2.67;;;24.50;92.50;;;;;;6216108;23;20070;-82
2022/06/26 10:30:29;;;;;;;7.05;2.95;;;24.20;96.90;;;;;;6214561;23;20017;-82
2022/06/26 10:33:18;;;;;;;5.35;3.58;;;24.10;99.20;;;;;;6216205;23;20332;-82
2022/06/26 10:35:47;;;;;;;7.30;3.78;;;23.90;99.20;;;;;;6214787;23;20030;-81
2022/06/26 10:38:23;;;;;;;5.50;3.33;;;23.80;98.00;;;;;;6215948;23;20056;-82
2022/06/26 10:43:49;;;;;;;4.85;2.88;;;23.40;99.80;;;;;;6214322;23;20468;-81
2022/06/26 10:46:15;;;;;;;5.07;2.80;;;23.30;99.90;;;;;;6214415;23;20024;-82
2022/06/26 10:48:54;;;;;;;5.22;2.60;;;23.30;99.90;;;;;;6215959;23;20024;-81
2022/06/26 10:51:25;;;;;;;6.15;2.97;;;23.30;99.90;;;;;;6215734;23;20024;-83
2022/06/26 10:53:51;;;;;;;8.07;2.95;;;23.60;99.90;;;;;;6189087;23;20020;-81
2022/06/26 10:56:16;;;;;;;3.97;2.92;;;23.80;99.90;;;;;;6214353;23;20021;-82
2022/06/26 10:58:45;;;;;;;6.85;3.33;;;24.20;99.90;;;;;;6216739;23;20016;-82
2022/06/26 11:01:12;;;;;;;6.22;3.25;;;24.90;92.20;;;;;;6216983;23;20020;-84
2022/06/26 11:03:39;;;;;;;5.03;3.08;;;25.50;81.80;;;;;;6217861;23;20039;-82
2022/06/26 11:06:06;;;;;;;3.42;2.42;;;25.90;79.00;;;;;;6246366;23;20415;-81
2022/06/26 11:08:50;;;;;;;6.30;2.85;;;26.20;76.90;;;;;;6219956;23;20027;-82
2022/06/26 11:11:19;;;;;;;7.20;3.40;;;26.10;79.80;;;;;;6246325;23;20452;-81
2022/06/26 11:14:08;;;;;;;7.30;2.90;;;25.90;75.90;;;;;;6220090;23;20012;-82
2022/06/26 11:16:43;;;;;;;6.40;2.58;;;25.60;78.40;;;;;;6219322;23;20019;-82
2022/06/26 11:19:30;;;;;;;4.82;2.20;;;25.40;79.60;;;;;;6194387;23;20055;-82
2022/06/26 11:22:06;;;;;;;5.90;2.30;;;25.30;79.50;;;;;;6245490;23;20459;-82
2022/06/26 11:24:32;;;;;;;4.13;2.05;;;25.30;81.00;;;;;;6218745;23;20016;-81
2022/06/26 11:26:58;;;;;;;6.03;2.75;;;25.60;79.40;;;;;;6245086;23;20020;-82
2022/06/26 11:29:24;;;;;;;5.97;2.10;;;25.70;71.90;;;;;;6194030;23;20099;-82
2022/06/26 11:31:53;;;;;;;5.57;2.05;;;25.90;73.80;;;;;;6218984;23;20020;-81
2022/06/26 11:34:20;;;;;;;3.30;2.00;;;26.00;70.50;;;;;;6245960;23;20055;-82
2022/06/26 11:36:50;;;;;;;3.33;2.10;;;25.90;71.90;;;;;;6245709;23;20056;-81
2022/06/26 11:39:16;;;;;;;4.80;2.58;;;26.00;69.30;;;;;;6218738;23;20023;-81
2022/06/26 11:41:42;;;;;;;4.68;2.22;;;25.90;70.40;;;;;;6246756;23;20016;-82
2022/06/26 11:44:07;;;;;;;5.20;2.47;;;25.70;74.20;;;;;;6247989;23;20016;-81
2022/06/26 11:46:33;;;;;;;5.32;3.10;;;25.50;72.80;;;;;;6247934;23;20020;-81
2022/06/26 11:48:59;;;;;;;7.45;3.00;;;25.30;78.50;;;;;;6221069;23;20039;-82
2022/06/26 11:51:29;;;;;;;5.65;2.47;;;25.00;81.00;;;;;;6221007;23;20107;-84
2022/06/26 11:53:54;;;;;;;4.75;2.30;;;24.80;86.50;;;;;;6247779;23;20020;-82
2022/06/26 11:56:23;;;;;;;6.55;2.78;;;24.60;85.70;;;;;;6247688;23;20058;-82
2022/06/26 11:58:51;;;;;;;4.80;2.38;;;24.60;90.30;;;;;;6220677;23;20347;-82
2022/06/26 12:01:18;;;;;;;5.65;3.17;;;24.60;86.60;;;;;;6220798;23;20019;-81
2022/06/26 12:03:46;;;;;;;6.78;2.97;;;24.60;83.90;;;;;;6247382;23;20027;-82
2022/06/26 12:06:35;;;;;;;4.25;2.42;;;24.60;82.60;;;;;;6220953;23;20024;-81
2022/06/26 12:09:21;;;;;;;6.03;2.90;;;24.50;82.90;;;;;;6100617;23;20084;-83
2022/06/26 12:11:49;;;;;;;6.47;2.58;;;24.50;88.00;;;;;;6100611;23;20518;-82
2022/06/26 12:14:20;;;;;;;4.88;2.70;;;24.40;94.60;;;;;;6100495;23;20017;-81
2022/06/26 12:16:54;;;;;;;5.20;2.80;;;24.40;95.10;;;;;;6100244;23;20073;-82
2022/06/26 12:19:22;;;;;;;5.72;2.80;;;24.40;93.30;;;;;;6124873;23;20025;-81
2022/06/26 12:21:50;;;;;;;4.25;2.60;;;24.20;96.40;;;;;;6125066;23;20466;-80
2022/06/26 12:24:18;;;;;;;4.80;2.70;;;24.00;94.80;;;;;;6125864;23;20398;-82
2022/06/26 12:26:45;;;;;;;7.45;2.95;;;23.80;97.60;;;;;;6125053;23;20029;-82
2022/06/26 12:29:14;;;;;;;6.95;2.67;;;23.80;99.80;;;;;;6125771;23;20028;-81
2022/06/26 12:31:41;;;;;;;4.88;2.85;;;23.70;99.90;;;;;;6125406;23;20054;-82
2022/06/26 12:34:08;;;;;;;6.45;2.72;;;23.40;99.90;;;;;;6101159;23;20055;-81
2022/06/26 12:36:34;;;;;;;4.40;2.53;;;23.10;99.90;;;;;;6100930;23;20030;-81
2022/06/26 12:39:01;;;;;;;5.10;2.38;;;23.00;99.90;;;;;;6101322;23;20077;-81
2022/06/26 12:41:27;;;;;;;6.63;2.33;;;23.00;99.90;;;;;;6125265;23;20028;-81
2022/06/26 12:43:56;;;;;;;4.45;2.30;;;23.10;99.90;;;;;;6125001;23;20113;-81
2022/06/26 12:46:22;;;;;;;6.32;2.53;;;23.20;99.90;;;;;;6204486;23;20031;-81
2022/06/26 12:48:48;;;;;;;6.97;2.47;;;23.20;99.50;;;;;;6220675;23;20064;-82
2022/06/26 12:51:15;;;;;;;8.27;2.33;;;23.00;97.80;;;;;;6220640;23;20101;-81
2022/06/26 12:53:41;;;;;;;4.00;1.92;;;22.80;95.90;;;;;;6247319;23;20008;-81